Aviation Digital Data Service (ADDS)

Output produced by METARs form (0847 UTC 02 August 2021)
found at http://aviationweather.gov/metar/data/
 
KBWI 020524Z 0206/0312 30004KT P6SM SKC 
     FM021800 33007KT P6SM FEW060 
     FM022300 VRB03KT P6SM SKC 
     FM030900 00000KT P6SM BKN080 
     FM031100 00000KT P6SM OVC080
       
KSBY 020842Z 0209/0306 32007KT P6SM SCT003 
     TEMPO 0209/0212 2SM BR BKN003 
     FM021200 33008KT P6SM FEW120 
     FM030000 33002KT P6SM SKC 
     FM030400 00000KT P6SM SCT250